sensor_id;sensor_type;location;lat;lon;timestamp;temperature;humidity
23156;DHT22;11746;50.876;4.246;2023-04-16T00:00:11;8.90;99.90
23156;DHT22;11746;50.876;4.246;2023-04-16T00:02:37;8.90;99.90
23156;DHT22;11746;50.876;4.246;2023-04-16T00:05:04;8.90;99.90
23156;DHT22;11746;50.876;4.246;2023-04-16T00:07:29;9.00;99.90
23156;DHT22;11746;50.876;4.246;2023-04-16T00:09:56;9.00;99.90
23156;DHT22;11746;50.876;4.246;2023-04-16T00:12:23;9.00;99.90
23156;DHT22;11746;50.876;4.246;2023-04-16T00:14:49;9.00;99.90
23156;DHT22;11746;50.876;4.246;2023-04-16T00:17:15;9.00;99.90
23156;DHT22;11746;50.876;4.246;2023-04-16T00:19:41;9.00;99.90
23156;DHT22;11746;50.876;4.246;2023-04-16T00:22:07;8.90;99.90
23156;DHT22;11746;50.876;4.246;2023-04-16T00:24:33;8.80;99.90
23156;DHT22;11746;50.876;4.246;2023-04-16T00:26:58;8.90;99.90
23156;DHT22;11746;50.876;4.246;2023-04-16T00:29:26;8.80;99.90
23156;DHT22;11746;50.876;4.246;2023-04-16T00:31:53;8.60;99.90
23156;DHT22;11746;50.876;4.246;2023-04-16T00:34:19;8.60;99.90
23156;DHT22;11746;50.876;4.246;2023-04-16T00:36:45;8.60;99.90
23156;DHT22;11746;50.876;4.246;2023-04-16T00:39:11;8.60;99.90
23156;DHT22;11746;50.876;4.246;2023-04-16T00:41:37;8.60;99.90
23156;DHT22;11746;50.876;4.246;2023-04-16T00:44:03;8.70;99.90
23156;DHT22;11746;50.876;4.246;2023-04-16T00:46:29;8.70;99.90
23156;DHT22;11746;50.876;4.246;2023-04-16T00:48:56;8.60;99.90
23156;DHT22;11746;50.876;4.246;2023-04-16T00:51:22;8.50;99.90
23156;DHT22;11746;50.876;4.246;2023-04-16T00:53:48;8.50;99.90
23156;DHT22;11746;50.876;4.246;2023-04-16T00:56:15;8.50;99.90
23156;DHT22;11746;50.876;4.246;2023-04-16T00:58:41;8.50;99.90
23156;DHT22;11746;50.876;4.246;2023-04-16T01:01:07;8.60;99.90
23156;DHT22;11746;50.876;4.246;2023-04-16T01:03:38;8.70;99.90
23156;DHT22;11746;50.876;4.246;2023-04-16T01:06:06;8.80;99.90
23156;DHT22;11746;50.876;4.246;2023-04-16T01:08:32;8.70;99.90
23156;DHT22;11746;50.876;4.246;2023-04-16T01:10:58;8.70;99.90
23156;DHT22;11746;50.876;4.246;2023-04-16T01:13:24;8.80;99.90
23156;DHT22;11746;50.876;4.246;2023-04-16T01:15:51;8.80;99.90
23156;DHT22;11746;50.876;4.246;2023-04-16T01:18:20;8.60;99.90
23156;DHT22;11746;50.876;4.246;2023-04-16T01:20:47;8.60;99.90
23156;DHT22;11746;50.876;4.246;2023-04-16T01:23:14;8.50;99.90
23156;DHT22;11746;50.876;4.246;2023-04-16T01:25:40;8.50;99.90
23156;DHT22;11746;50.876;4.246;2023-04-16T01:28:06;8.60;99.90
23156;DHT22;11746;50.876;4.246;2023-04-16T01:30:33;8.60;99.90
23156;DHT22;11746;50.876;4.246;2023-04-16T01:32:59;8.60;99.90
23156;DHT22;11746;50.876;4.246;2023-04-16T01:35:25;8.60;99.90
23156;DHT22;11746;50.876;4.246;2023-04-16T01:37:51;8.50;99.90
23156;DHT22;11746;50.876;4.246;2023-04-16T01:40:17;8.50;99.90
23156;DHT22;11746;50.876;4.246;2023-04-16T01:42:43;8.50;99.90
23156;DHT22;11746;50.876;4.246;2023-04-16T01:45:09;8.50;99.90
23156;DHT22;11746;50.876;4.246;2023-04-16T01:47:35;8.50;99.90
23156;DHT22;11746;50.876;4.246;2023-04-16T01:50:02;8.50;99.90
23156;DHT22;11746;50.876;4.246;2023-04-16T01:52:29;8.40;99.90
23156;DHT22;11746;50.876;4.246;2023-04-16T01:54:55;8.50;99.90
23156;DHT22;11746;50.876;4.246;2023-04-16T01:57:21;8.50;99.90
23156;DHT22;11746;50.876;4.246;2023-04-16T01:59:46;8.50;99.90
23156;DHT22;11746;50.876;4.246;2023-04-16T02:02:14;8.50;99.90
23156;DHT22;11746;50.876;4.246;2023-04-16T02:04:43;8.60;99.90
23156;DHT22;11746;50.876;4.246;2023-04-16T02:07:10;8.70;99.90
23156;DHT22;11746;50.876;4.246;2023-04-16T02:09:40;8.70;99.90
23156;DHT22;11746;50.876;4.246;2023-04-16T02:12:06;8.70;99.90
23156;DHT22;11746;50.876;4.246;2023-04-16T02:14:32;8.70;99.90
23156;DHT22;11746;50.876;4.246;2023-04-16T02:16:59;8.70;99.90
23156;DHT22;11746;50.876;4.246;2023-04-16T02:19:25;8.80;99.90
23156;DHT22;11746;50.876;4.246;2023-04-16T02:21:51;8.70;99.90
23156;DHT22;11746;50.876;4.246;2023-04-16T02:24:20;8.60;99.90
23156;DHT22;11746;50.876;4.246;2023-04-16T02:26:46;8.60;99.90
23156;DHT22;11746;50.876;4.246;2023-04-16T02:29:13;8.50;99.90
23156;DHT22;11746;50.876;4.246;2023-04-16T02:31:40;8.50;99.90
23156;DHT22;11746;50.876;4.246;2023-04-16T02:34:06;8.50;99.90
23156;DHT22;11746;50.876;4.246;2023-04-16T02:36:32;8.60;99.90
23156;DHT22;11746;50.876;4.246;2023-04-16T02:38:58;8.60;99.90
23156;DHT22;11746;50.876;4.246;2023-04-16T02:41:24;8.60;99.90
23156;DHT22;11746;50.876;4.246;2023-04-16T02:43:50;8.60;99.90
23156;DHT22;11746;50.876;4.246;2023-04-16T02:46:16;8.50;99.90
23156;DHT22;11746;50.876;4.246;2023-04-16T02:48:42;8.60;99.90
23156;DHT22;11746;50.876;4.246;2023-04-16T02:51:07;8.60;99.90
23156;DHT22;11746;50.876;4.246;2023-04-16T02:53:33;8.70;99.90
23156;DHT22;11746;50.876;4.246;2023-04-16T02:56:00;8.70;99.90
23156;DHT22;11746;50.876;4.246;2023-04-16T02:58:26;8.70;99.90
23156;DHT22;11746;50.876;4.246;2023-04-16T03:00:53;8.60;99.90
23156;DHT22;11746;50.876;4.246;2023-04-16T03:03:20;8.70;99.90
23156;DHT22;11746;50.876;4.246;2023-04-16T03:05:46;8.70;99.90
23156;DHT22;11746;50.876;4.246;2023-04-16T03:08:12;8.60;99.90
23156;DHT22;11746;50.876;4.246;2023-04-16T03:10:38;8.50;99.90
23156;DHT22;11746;50.876;4.246;2023-04-16T03:13:06;8.50;99.90
23156;DHT22;11746;50.876;4.246;2023-04-16T03:15:32;8.40;99.90
23156;DHT22;11746;50.876;4.246;2023-04-16T03:17:58;8.50;99.90
23156;DHT22;11746;50.876;4.246;2023-04-16T03:20:24;8.40;99.90
23156;DHT22;11746;50.876;4.246;2023-04-16T03:22:50;8.40;99.90
23156;DHT22;11746;50.876;4.246;2023-04-16T03:25:19;8.40;99.90
23156;DHT22;11746;50.876;4.246;2023-04-16T03:27:45;8.40;99.90
23156;DHT22;11746;50.876;4.246;2023-04-16T03:30:12;8.40;99.90
23156;DHT22;11746;50.876;4.246;2023-04-16T03:32:38;8.50;99.90
23156;DHT22;11746;50.876;4.246;2023-04-16T03:35:05;8.40;99.90
23156;DHT22;11746;50.876;4.246;2023-04-16T03:37:32;8.30;99.90
23156;DHT22;11746;50.876;4.246;2023-04-16T03:39:58;8.30;99.90
23156;DHT22;11746;50.876;4.246;2023-04-16T03:42:24;8.30;99.90
23156;DHT22;11746;50.876;4.246;2023-04-16T03:44:50;8.30;99.90
23156;DHT22;11746;50.876;4.246;2023-04-16T03:47:19;8.40;99.90
23156;DHT22;11746;50.876;4.246;2023-04-16T03:49:46;8.40;99.90
23156;DHT22;11746;50.876;4.246;2023-04-16T03:52:11;8.40;99.90
23156;DHT22;11746;50.876;4.246;2023-04-16T03:54:37;8.40;99.90
23156;DHT22;11746;50.876;4.246;2023-04-16T03:57:05;8.40;99.90
23156;DHT22;11746;50.876;4.246;2023-04-16T03:59:31;8.50;99.90
23156;DHT22;11746;50.876;4.246;2023-04-16T04:01:57;8.40;99.90
23156;DHT22;11746;50.876;4.246;2023-04-16T04:04:23;8.40;99.90
23156;DHT22;11746;50.876;4.246;2023-04-16T04:06:49;8.40;99.90
23156;DHT22;11746;50.876;4.246;2023-04-16T04:09:15;8.40;99.90
23156;DHT22;11746;50.876;4.246;2023-04-16T04:11:41;8.40;99.90
23156;DHT22;11746;50.876;4.246;2023-04-16T04:14:07;8.50;99.90
23156;DHT22;11746;50.876;4.246;2023-04-16T04:16:34;8.60;99.90
23156;DHT22;11746;50.876;4.246;2023-04-16T04:19:00;8.70;99.90
23156;DHT22;11746;50.876;4.246;2023-04-16T04:21:27;8.60;99.90
23156;DHT22;11746;50.876;4.246;2023-04-16T04:23:53;8.50;99.90
23156;DHT22;11746;50.876;4.246;2023-04-16T04:26:20;8.40;99.90
23156;DHT22;11746;50.876;4.246;2023-04-16T04:28:46;8.40;99.90
23156;DHT22;11746;50.876;4.246;2023-04-16T04:31:12;8.50;99.90
23156;DHT22;11746;50.876;4.246;2023-04-16T04:33:39;8.40;99.90
23156;DHT22;11746;50.876;4.246;2023-04-16T04:36:05;8.50;99.90
23156;DHT22;11746;50.876;4.246;2023-04-16T04:38:31;8.40;99.90
23156;DHT22;11746;50.876;4.246;2023-04-16T04:40:58;8.40;99.90
23156;DHT22;11746;50.876;4.246;2023-04-16T04:43:24;8.30;99.90
23156;DHT22;11746;50.876;4.246;2023-04-16T04:45:50;8.40;99.90
23156;DHT22;11746;50.876;4.246;2023-04-16T04:48:16;8.40;99.90
23156;DHT22;11746;50.876;4.246;2023-04-16T04:50:43;8.50;99.90
23156;DHT22;11746;50.876;4.246;2023-04-16T04:53:09;8.50;99.90
23156;DHT22;11746;50.876;4.246;2023-04-16T04:55:36;8.50;99.90
23156;DHT22;11746;50.876;4.246;2023-04-16T04:58:06;8.50;99.90
23156;DHT22;11746;50.876;4.246;2023-04-16T05:00:33;8.50;99.90
23156;DHT22;11746;50.876;4.246;2023-04-16T05:03:04;8.50;99.90
23156;DHT22;11746;50.876;4.246;2023-04-16T05:05:30;8.60;99.90
23156;DHT22;11746;50.876;4.246;2023-04-16T05:07:56;8.50;99.90
23156;DHT22;11746;50.876;4.246;2023-04-16T05:10:22;8.50;99.90
23156;DHT22;11746;50.876;4.246;2023-04-16T05:12:48;8.50;99.90
23156;DHT22;11746;50.876;4.246;2023-04-16T05:15:14;8.50;99.90
23156;DHT22;11746;50.876;4.246;2023-04-16T05:17:40;8.40;99.90
23156;DHT22;11746;50.876;4.246;2023-04-16T05:20:08;8.40;99.90
23156;DHT22;11746;50.876;4.246;2023-04-16T05:22:34;8.40;99.90
23156;DHT22;11746;50.876;4.246;2023-04-16T05:25:00;8.50;99.90
23156;DHT22;11746;50.876;4.246;2023-04-16T05:27:26;8.40;99.90
23156;DHT22;11746;50.876;4.246;2023-04-16T05:29:51;8.40;99.90
23156;DHT22;11746;50.876;4.246;2023-04-16T05:32:17;8.40;99.90
23156;DHT22;11746;50.876;4.246;2023-04-16T05:34:43;8.40;99.90
23156;DHT22;11746;50.876;4.246;2023-04-16T05:37:09;8.40;99.90
23156;DHT22;11746;50.876;4.246;2023-04-16T05:39:35;8.30;99.90
23156;DHT22;11746;50.876;4.246;2023-04-16T05:42:01;8.40;99.90
23156;DHT22;11746;50.876;4.246;2023-04-16T05:44:27;8.40;99.90
23156;DHT22;11746;50.876;4.246;2023-04-16T05:46:53;8.40;99.90
23156;DHT22;11746;50.876;4.246;2023-04-16T05:49:19;8.30;99.90
23156;DHT22;11746;50.876;4.246;2023-04-16T05:51:46;8.30;99.90
23156;DHT22;11746;50.876;4.246;2023-04-16T05:54:11;8.30;99.90
23156;DHT22;11746;50.876;4.246;2023-04-16T05:56:37;8.30;99.90
23156;DHT22;11746;50.876;4.246;2023-04-16T05:59:03;8.30;99.90
23156;DHT22;11746;50.876;4.246;2023-04-16T06:01:29;8.30;99.90
23156;DHT22;11746;50.876;4.246;2023-04-16T06:03:55;8.30;99.90
23156;DHT22;11746;50.876;4.246;2023-04-16T06:06:21;8.30;99.90
23156;DHT22;11746;50.876;4.246;2023-04-16T06:08:47;8.30;99.90
23156;DHT22;11746;50.876;4.246;2023-04-16T06:11:13;8.40;99.90
23156;DHT22;11746;50.876;4.246;2023-04-16T06:13:41;8.40;99.90
23156;DHT22;11746;50.876;4.246;2023-04-16T06:16:07;8.50;99.90
23156;DHT22;11746;50.876;4.246;2023-04-16T06:18:33;8.60;99.90
23156;DHT22;11746;50.876;4.246;2023-04-16T06:20:59;8.60;99.90
23156;DHT22;11746;50.876;4.246;2023-04-16T06:23:25;8.70;99.90
23156;DHT22;11746;50.876;4.246;2023-04-16T06:25:51;8.50;99.90
23156;DHT22;11746;50.876;4.246;2023-04-16T06:28:17;8.40;99.90
23156;DHT22;11746;50.876;4.246;2023-04-16T06:30:43;8.40;99.90
23156;DHT22;11746;50.876;4.246;2023-04-16T06:33:09;8.30;99.90
23156;DHT22;11746;50.876;4.246;2023-04-16T06:35:35;8.40;99.90
23156;DHT22;11746;50.876;4.246;2023-04-16T06:38:00;8.30;99.90
23156;DHT22;11746;50.876;4.246;2023-04-16T06:40:26;8.40;99.90
23156;DHT22;11746;50.876;4.246;2023-04-16T06:42:53;8.40;99.90
23156;DHT22;11746;50.876;4.246;2023-04-16T06:45:18;8.40;99.90
23156;DHT22;11746;50.876;4.246;2023-04-16T06:47:44;8.50;99.90
23156;DHT22;11746;50.876;4.246;2023-04-16T06:50:10;8.50;99.90
23156;DHT22;11746;50.876;4.246;2023-04-16T06:52:36;8.60;99.90
23156;DHT22;11746;50.876;4.246;2023-04-16T06:55:02;8.60;99.90
23156;DHT22;11746;50.876;4.246;2023-04-16T06:57:28;8.60;99.90
23156;DHT22;11746;50.876;4.246;2023-04-16T06:59:54;8.50;99.90
23156;DHT22;11746;50.876;4.246;2023-04-16T07:02:20;8.60;99.90
23156;DHT22;11746;50.876;4.246;2023-04-16T07:04:46;8.60;99.90
23156;DHT22;11746;50.876;4.246;2023-04-16T07:07:12;8.70;99.90
23156;DHT22;11746;50.876;4.246;2023-04-16T07:09:38;8.70;99.90
23156;DHT22;11746;50.876;4.246;2023-04-16T07:12:05;8.60;99.90
23156;DHT22;11746;50.876;4.246;2023-04-16T07:14:31;8.70;99.90
23156;DHT22;11746;50.876;4.246;2023-04-16T07:16:57;8.80;99.90
23156;DHT22;11746;50.876;4.246;2023-04-16T07:19:23;8.80;99.90
23156;DHT22;11746;50.876;4.246;2023-04-16T07:21:49;8.70;99.90
23156;DHT22;11746;50.876;4.246;2023-04-16T07:24:15;8.50;99.90
23156;DHT22;11746;50.876;4.246;2023-04-16T07:26:41;8.60;99.90
23156;DHT22;11746;50.876;4.246;2023-04-16T07:29:07;8.60;99.90
23156;DHT22;11746;50.876;4.246;2023-04-16T07:31:33;8.60;99.90
23156;DHT22;11746;50.876;4.246;2023-04-16T07:33:59;8.70;99.90
23156;DHT22;11746;50.876;4.246;2023-04-16T07:36:26;8.70;99.90
23156;DHT22;11746;50.876;4.246;2023-04-16T07:38:52;8.80;99.90
23156;DHT22;11746;50.876;4.246;2023-04-16T07:41:18;8.80;99.90
23156;DHT22;11746;50.876;4.246;2023-04-16T07:43:44;8.80;99.90
23156;DHT22;11746;50.876;4.246;2023-04-16T07:46:10;8.80;99.90
23156;DHT22;11746;50.876;4.246;2023-04-16T07:48:36;8.70;99.90
23156;DHT22;11746;50.876;4.246;2023-04-16T07:51:04;8.70;99.90
23156;DHT22;11746;50.876;4.246;2023-04-16T07:53:30;8.70;99.90
23156;DHT22;11746;50.876;4.246;2023-04-16T07:55:58;8.80;99.90
23156;DHT22;11746;50.876;4.246;2023-04-16T07:58:24;8.70;99.90
23156;DHT22;11746;50.876;4.246;2023-04-16T08:00:50;8.70;99.90
23156;DHT22;11746;50.876;4.246;2023-04-16T08:03:16;8.70;99.90
23156;DHT22;11746;50.876;4.246;2023-04-16T08:05:42;8.70;99.90
23156;DHT22;11746;50.876;4.246;2023-04-16T08:08:08;8.90;99.90
23156;DHT22;11746;50.876;4.246;2023-04-16T08:10:34;8.90;99.90
23156;DHT22;11746;50.876;4.246;2023-04-16T08:13:00;8.90;99.90
23156;DHT22;11746;50.876;4.246;2023-04-16T08:15:26;8.90;99.90
23156;DHT22;11746;50.876;4.246;2023-04-16T08:17:52;9.00;99.90
23156;DHT22;11746;50.876;4.246;2023-04-16T08:20:18;9.10;99.90
23156;DHT22;11746;50.876;4.246;2023-04-16T08:22:45;9.10;99.90
23156;DHT22;11746;50.876;4.246;2023-04-16T08:25:11;9.10;99.90
23156;DHT22;11746;50.876;4.246;2023-04-16T08:27:37;9.10;99.90
23156;DHT22;11746;50.876;4.246;2023-04-16T08:30:03;9.10;99.90
23156;DHT22;11746;50.876;4.246;2023-04-16T08:32:29;9.10;99.90
23156;DHT22;11746;50.876;4.246;2023-04-16T08:34:55;9.10;99.90
23156;DHT22;11746;50.876;4.246;2023-04-16T08:37:21;9.10;99.90
23156;DHT22;11746;50.876;4.246;2023-04-16T08:39:47;9.10;99.90
23156;DHT22;11746;50.876;4.246;2023-04-16T08:42:23;9.10;99.90
23156;DHT22;11746;50.876;4.246;2023-04-16T08:45:12;9.10;99.90
23156;DHT22;11746;50.876;4.246;2023-04-16T08:47:38;9.20;99.90
23156;DHT22;11746;50.876;4.246;2023-04-16T08:50:08;9.20;99.90
23156;DHT22;11746;50.876;4.246;2023-04-16T08:52:37;9.00;99.90
23156;DHT22;11746;50.876;4.246;2023-04-16T08:55:15;9.00;99.90
23156;DHT22;11746;50.876;4.246;2023-04-16T08:57:59;8.90;99.90
23156;DHT22;11746;50.876;4.246;2023-04-16T09:00:26;8.80;99.90
23156;DHT22;11746;50.876;4.246;2023-04-16T09:02:53;8.80;99.90
23156;DHT22;11746;50.876;4.246;2023-04-16T09:05:19;8.80;99.90
23156;DHT22;11746;50.876;4.246;2023-04-16T09:07:51;8.70;99.90
23156;DHT22;11746;50.876;4.246;2023-04-16T09:10:19;8.70;99.90
23156;DHT22;11746;50.876;4.246;2023-04-16T09:12:45;8.80;99.90
23156;DHT22;11746;50.876;4.246;2023-04-16T09:15:12;8.90;99.90
23156;DHT22;11746;50.876;4.246;2023-04-16T09:17:38;8.90;99.90
23156;DHT22;11746;50.876;4.246;2023-04-16T09:20:06;9.00;99.90
23156;DHT22;11746;50.876;4.246;2023-04-16T09:22:36;9.00;99.90
23156;DHT22;11746;50.876;4.246;2023-04-16T09:25:03;9.00;99.90
23156;DHT22;11746;50.876;4.246;2023-04-16T09:27:29;9.00;99.90
23156;DHT22;11746;50.876;4.246;2023-04-16T09:29:56;9.10;99.90
23156;DHT22;11746;50.876;4.246;2023-04-16T09:32:26;9.10;99.90
23156;DHT22;11746;50.876;4.246;2023-04-16T09:34:58;9.20;99.90
23156;DHT22;11746;50.876;4.246;2023-04-16T09:37:28;9.10;99.90
23156;DHT22;11746;50.876;4.246;2023-04-16T09:39:59;9.10;99.90
23156;DHT22;11746;50.876;4.246;2023-04-16T09:42:33;9.20;99.90
23156;DHT22;11746;50.876;4.246;2023-04-16T09:45:01;9.20;99.90
23156;DHT22;11746;50.876;4.246;2023-04-16T09:47:44;9.20;99.90
23156;DHT22;11746;50.876;4.246;2023-04-16T09:50:15;9.00;99.90
23156;DHT22;11746;50.876;4.246;2023-04-16T09:52:43;9.10;99.90
23156;DHT22;11746;50.876;4.246;2023-04-16T09:55:10;9.10;99.90
23156;DHT22;11746;50.876;4.246;2023-04-16T09:57:37;9.20;99.90
23156;DHT22;11746;50.876;4.246;2023-04-16T10:00:05;9.20;99.90
23156;DHT22;11746;50.876;4.246;2023-04-16T10:02:32;9.30;99.90
23156;DHT22;11746;50.876;4.246;2023-04-16T10:05:01;9.20;99.90
23156;DHT22;11746;50.876;4.246;2023-04-16T10:07:35;9.20;99.90
23156;DHT22;11746;50.876;4.246;2023-04-16T10:10:02;9.30;99.90
23156;DHT22;11746;50.876;4.246;2023-04-16T10:12:29;9.40;99.90
23156;DHT22;11746;50.876;4.246;2023-04-16T10:14:57;9.30;99.90
23156;DHT22;11746;50.876;4.246;2023-04-16T10:17:23;9.20;99.90
23156;DHT22;11746;50.876;4.246;2023-04-16T10:19:50;9.20;99.90
23156;DHT22;11746;50.876;4.246;2023-04-16T10:22:16;9.30;99.90
23156;DHT22;11746;50.876;4.246;2023-04-16T10:24:42;9.30;99.90
23156;DHT22;11746;50.876;4.246;2023-04-16T10:27:09;9.20;99.90
23156;DHT22;11746;50.876;4.246;2023-04-16T10:29:36;9.30;99.90
23156;DHT22;11746;50.876;4.246;2023-04-16T10:32:02;9.20;99.90
23156;DHT22;11746;50.876;4.246;2023-04-16T10:34:29;9.10;99.90
23156;DHT22;11746;50.876;4.246;2023-04-16T10:36:55;9.20;99.90
23156;DHT22;11746;50.876;4.246;2023-04-16T10:39:23;9.30;99.90
23156;DHT22;11746;50.876;4.246;2023-04-16T10:41:50;9.30;99.90
23156;DHT22;11746;50.876;4.246;2023-04-16T10:44:30;9.30;99.90
23156;DHT22;11746;50.876;4.246;2023-04-16T10:46:58;9.30;99.90
23156;DHT22;11746;50.876;4.246;2023-04-16T10:49:25;9.30;99.90
23156;DHT22;11746;50.876;4.246;2023-04-16T10:52:08;9.40;99.90
23156;DHT22;11746;50.876;4.246;2023-04-16T10:54:35;9.50;99.90
23156;DHT22;11746;50.876;4.246;2023-04-16T10:57:06;9.40;99.90
23156;DHT22;11746;50.876;4.246;2023-04-16T10:59:34;9.40;99.90
23156;DHT22;11746;50.876;4.246;2023-04-16T11:02:06;9.40;99.90
23156;DHT22;11746;50.876;4.246;2023-04-16T11:04:38;9.60;99.90
23156;DHT22;11746;50.876;4.246;2023-04-16T11:09:57;9.70;99.90
23156;DHT22;11746;50.876;4.246;2023-04-16T11:12:44;9.50;99.90
23156;DHT22;11746;50.876;4.246;2023-04-16T11:15:16;9.50;99.90
23156;DHT22;11746;50.876;4.246;2023-04-16T11:17:46;9.60;99.90
23156;DHT22;11746;50.876;4.246;2023-04-16T11:20:20;9.70;99.90
23156;DHT22;11746;50.876;4.246;2023-04-16T11:22:47;9.60;99.90
23156;DHT22;11746;50.876;4.246;2023-04-16T11:25:23;9.60;99.90
23156;DHT22;11746;50.876;4.246;2023-04-16T11:27:50;9.70;99.90
23156;DHT22;11746;50.876;4.246;2023-04-16T11:30:17;9.60;99.90
23156;DHT22;11746;50.876;4.246;2023-04-16T11:32:43;9.60;99.90
23156;DHT22;11746;50.876;4.246;2023-04-16T11:35:17;9.60;99.90
23156;DHT22;11746;50.876;4.246;2023-04-16T11:37:43;9.60;99.90
23156;DHT22;11746;50.876;4.246;2023-04-16T11:40:10;9.70;99.90
23156;DHT22;11746;50.876;4.246;2023-04-16T11:42:38;9.80;99.90
23156;DHT22;11746;50.876;4.246;2023-04-16T11:45:07;9.80;99.90
23156;DHT22;11746;50.876;4.246;2023-04-16T11:47:44;9.80;99.90
23156;DHT22;11746;50.876;4.246;2023-04-16T11:50:23;9.80;99.90
23156;DHT22;11746;50.876;4.246;2023-04-16T11:52:51;9.90;99.90
23156;DHT22;11746;50.876;4.246;2023-04-16T11:55:19;9.80;99.90
23156;DHT22;11746;50.876;4.246;2023-04-16T11:57:45;9.80;99.90
23156;DHT22;11746;50.876;4.246;2023-04-16T12:00:12;10.00;99.90
23156;DHT22;11746;50.876;4.246;2023-04-16T12:02:43;10.10;99.90
23156;DHT22;11746;50.876;4.246;2023-04-16T12:05:32;10.00;99.90
23156;DHT22;11746;50.876;4.246;2023-04-16T12:08:01;9.90;99.90
23156;DHT22;11746;50.876;4.246;2023-04-16T12:10:29;9.80;99.90
23156;DHT22;11746;50.876;4.246;2023-04-16T12:13:12;9.80;99.90
23156;DHT22;11746;50.876;4.246;2023-04-16T12:15:54;9.90;99.90
23156;DHT22;11746;50.876;4.246;2023-04-16T12:18:24;9.90;99.90
23156;DHT22;11746;50.876;4.246;2023-04-16T12:20:54;10.00;99.90
23156;DHT22;11746;50.876;4.246;2023-04-16T12:25:50;10.10;99.90
23156;DHT22;11746;50.876;4.246;2023-04-16T12:28:33;10.00;99.90
23156;DHT22;11746;50.876;4.246;2023-04-16T12:31:00;10.10;99.90
23156;DHT22;11746;50.876;4.246;2023-04-16T12:33:26;10.20;99.90
23156;DHT22;11746;50.876;4.246;2023-04-16T12:35:52;10.10;99.90
23156;DHT22;11746;50.876;4.246;2023-04-16T12:38:18;10.10;99.90
23156;DHT22;11746;50.876;4.246;2023-04-16T12:40:44;10.30;99.90
23156;DHT22;11746;50.876;4.246;2023-04-16T12:43:10;10.30;99.90
23156;DHT22;11746;50.876;4.246;2023-04-16T12:45:37;10.30;99.90
23156;DHT22;11746;50.876;4.246;2023-04-16T12:48:03;10.10;99.90
23156;DHT22;11746;50.876;4.246;2023-04-16T12:50:29;10.20;99.90
23156;DHT22;11746;50.876;4.246;2023-04-16T12:52:55;10.30;99.90
23156;DHT22;11746;50.876;4.246;2023-04-16T12:55:22;10.40;99.90
23156;DHT22;11746;50.876;4.246;2023-04-16T12:57:49;10.40;99.90
23156;DHT22;11746;50.876;4.246;2023-04-16T13:00:16;10.50;99.90
23156;DHT22;11746;50.876;4.246;2023-04-16T13:02:42;10.50;99.90
23156;DHT22;11746;50.876;4.246;2023-04-16T13:05:08;10.60;99.90
23156;DHT22;11746;50.876;4.246;2023-04-16T13:07:34;10.70;99.90
23156;DHT22;11746;50.876;4.246;2023-04-16T13:10:00;10.60;99.90
23156;DHT22;11746;50.876;4.246;2023-04-16T13:12:26;10.80;99.90
23156;DHT22;11746;50.876;4.246;2023-04-16T13:14:54;10.80;99.90
23156;DHT22;11746;50.876;4.246;2023-04-16T13:17:19;10.70;99.90
23156;DHT22;11746;50.876;4.246;2023-04-16T13:19:45;10.80;99.90
23156;DHT22;11746;50.876;4.246;2023-04-16T13:22:12;10.70;99.90
23156;DHT22;11746;50.876;4.246;2023-04-16T13:24:38;10.70;99.90
23156;DHT22;11746;50.876;4.246;2023-04-16T13:27:04;10.80;99.90
23156;DHT22;11746;50.876;4.246;2023-04-16T13:29:32;10.80;99.90
23156;DHT22;11746;50.876;4.246;2023-04-16T13:32:01;10.90;99.90
23156;DHT22;11746;50.876;4.246;2023-04-16T13:34:27;11.10;99.90
23156;DHT22;11746;50.876;4.246;2023-04-16T13:36:52;11.20;99.90
23156;DHT22;11746;50.876;4.246;2023-04-16T13:39:18;11.30;99.90
23156;DHT22;11746;50.876;4.246;2023-04-16T13:41:44;11.30;99.90
23156;DHT22;11746;50.876;4.246;2023-04-16T13:44:10;11.10;99.90
23156;DHT22;11746;50.876;4.246;2023-04-16T13:46:36;11.20;99.90
23156;DHT22;11746;50.876;4.246;2023-04-16T13:49:02;11.10;99.90
23156;DHT22;11746;50.876;4.246;2023-04-16T13:51:28;11.20;99.90
23156;DHT22;11746;50.876;4.246;2023-04-16T13:53:54;11.00;99.90
23156;DHT22;11746;50.876;4.246;2023-04-16T13:56:20;11.00;99.90
23156;DHT22;11746;50.876;4.246;2023-04-16T13:58:47;10.90;99.90
23156;DHT22;11746;50.876;4.246;2023-04-16T14:01:13;10.90;99.90
23156;DHT22;11746;50.876;4.246;2023-04-16T14:03:39;10.90;99.90
23156;DHT22;11746;50.876;4.246;2023-04-16T14:06:06;10.90;99.90
23156;DHT22;11746;50.876;4.246;2023-04-16T14:08:32;10.90;99.90
23156;DHT22;11746;50.876;4.246;2023-04-16T14:10:58;11.00;99.90
23156;DHT22;11746;50.876;4.246;2023-04-16T14:13:24;11.00;99.90
23156;DHT22;11746;50.876;4.246;2023-04-16T14:15:52;11.00;99.90
23156;DHT22;11746;50.876;4.246;2023-04-16T14:18:19;11.10;99.90
23156;DHT22;11746;50.876;4.246;2023-04-16T14:20:45;11.20;99.90
23156;DHT22;11746;50.876;4.246;2023-04-16T14:23:11;11.10;99.90
23156;DHT22;11746;50.876;4.246;2023-04-16T14:25:37;11.10;99.90
23156;DHT22;11746;50.876;4.246;2023-04-16T14:28:04;11.20;99.90
23156;DHT22;11746;50.876;4.246;2023-04-16T14:30:30;11.20;99.90
23156;DHT22;11746;50.876;4.246;2023-04-16T14:32:57;11.10;99.90
23156;DHT22;11746;50.876;4.246;2023-04-16T14:35:23;11.00;99.90
23156;DHT22;11746;50.876;4.246;2023-04-16T14:37:49;11.20;99.90
23156;DHT22;11746;50.876;4.246;2023-04-16T14:40:15;11.40;99.90
23156;DHT22;11746;50.876;4.246;2023-04-16T14:42:41;11.40;99.90
23156;DHT22;11746;50.876;4.246;2023-04-16T14:45:07;11.50;99.90
23156;DHT22;11746;50.876;4.246;2023-04-16T14:47:34;11.40;99.90
23156;DHT22;11746;50.876;4.246;2023-04-16T14:50:01;11.30;99.90
23156;DHT22;11746;50.876;4.246;2023-04-16T14:52:29;11.20;99.90
23156;DHT22;11746;50.876;4.246;2023-04-16T14:54:55;11.30;99.90
23156;DHT22;11746;50.876;4.246;2023-04-16T14:57:21;11.40;99.90
23156;DHT22;11746;50.876;4.246;2023-04-16T14:59:47;11.40;99.90
23156;DHT22;11746;50.876;4.246;2023-04-16T15:02:13;11.40;99.90
23156;DHT22;11746;50.876;4.246;2023-04-16T15:04:40;11.40;99.90
23156;DHT22;11746;50.876;4.246;2023-04-16T15:07:06;11.50;99.90
23156;DHT22;11746;50.876;4.246;2023-04-16T15:09:33;11.50;99.90
23156;DHT22;11746;50.876;4.246;2023-04-16T15:11:59;11.60;99.90
23156;DHT22;11746;50.876;4.246;2023-04-16T15:14:25;11.60;99.90
23156;DHT22;11746;50.876;4.246;2023-04-16T15:16:52;11.60;99.90
23156;DHT22;11746;50.876;4.246;2023-04-16T15:19:18;11.60;99.90
23156;DHT22;11746;50.876;4.246;2023-04-16T15:21:44;11.60;99.90
23156;DHT22;11746;50.876;4.246;2023-04-16T15:24:10;11.40;99.90
23156;DHT22;11746;50.876;4.246;2023-04-16T15:26:36;11.20;99.90
23156;DHT22;11746;50.876;4.246;2023-04-16T15:29:02;11.20;99.90
23156;DHT22;11746;50.876;4.246;2023-04-16T15:31:28;11.20;99.90
23156;DHT22;11746;50.876;4.246;2023-04-16T15:33:54;11.20;99.90
23156;DHT22;11746;50.876;4.246;2023-04-16T15:36:21;11.30;99.90
23156;DHT22;11746;50.876;4.246;2023-04-16T15:38:46;11.20;99.90
23156;DHT22;11746;50.876;4.246;2023-04-16T15:41:13;11.10;99.90
23156;DHT22;11746;50.876;4.246;2023-04-16T15:43:38;11.10;99.90
23156;DHT22;11746;50.876;4.246;2023-04-16T15:46:04;11.10;99.90